sensor_id;sensor_type;location;lat;lon;timestamp;temperature;humidity
37956;DHT22;23776;51.592;7.180;2023-02-15T00:01:56;3.80;1.00
37956;DHT22;23776;51.592;7.180;2023-02-15T00:04:23;3.80;1.00
37956;DHT22;23776;51.592;7.180;2023-02-15T00:06:49;3.80;1.00
37956;DHT22;23776;51.592;7.180;2023-02-15T00:09:15;3.80;1.00
37956;DHT22;23776;51.592;7.180;2023-02-15T00:11:41;3.70;1.00
37956;DHT22;23776;51.592;7.180;2023-02-15T00:14:22;3.80;1.00
37956;DHT22;23776;51.592;7.180;2023-02-15T00:16:49;3.80;1.00
37956;DHT22;23776;51.592;7.180;2023-02-15T00:19:17;3.70;1.00
37956;DHT22;23776;51.592;7.180;2023-02-15T00:21:43;3.60;1.00
37956;DHT22;23776;51.592;7.180;2023-02-15T00:24:11;3.60;1.00
37956;DHT22;23776;51.592;7.180;2023-02-15T00:26:39;3.50;1.00
37956;DHT22;23776;51.592;7.180;2023-02-15T00:29:06;3.50;1.00
37956;DHT22;23776;51.592;7.180;2023-02-15T00:31:32;3.50;1.00
37956;DHT22;23776;51.592;7.180;2023-02-15T00:34:12;3.40;1.00
37956;DHT22;23776;51.592;7.180;2023-02-15T00:36:38;5.30;1.00
37956;DHT22;23776;51.592;7.180;2023-02-15T00:39:05;3.50;1.00
37956;DHT22;23776;51.592;7.180;2023-02-15T00:41:34;3.50;1.00
37956;DHT22;23776;51.592;7.180;2023-02-15T00:44:00;3.40;1.00
37956;DHT22;23776;51.592;7.180;2023-02-15T00:46:25;3.40;1.00
37956;DHT22;23776;51.592;7.180;2023-02-15T00:48:51;3.30;1.00
37956;DHT22;23776;51.592;7.180;2023-02-15T00:51:18;3.40;1.00
37956;DHT22;23776;51.592;7.180;2023-02-15T00:57:06;3.40;1.00
37956;DHT22;23776;51.592;7.180;2023-02-15T00:59:31;3.30;1.00
37956;DHT22;23776;51.592;7.180;2023-02-15T01:01:57;3.20;1.00
37956;DHT22;23776;51.592;7.180;2023-02-15T01:04:22;3.30;1.00
37956;DHT22;23776;51.592;7.180;2023-02-15T01:06:48;3.20;1.00
37956;DHT22;23776;51.592;7.180;2023-02-15T01:09:13;3.20;1.00
37956;DHT22;23776;51.592;7.180;2023-02-15T01:11:39;3.20;1.00
37956;DHT22;23776;51.592;7.180;2023-02-15T01:14:05;3.10;1.00
37956;DHT22;23776;51.592;7.180;2023-02-15T01:16:30;2.90;1.00
37956;DHT22;23776;51.592;7.180;2023-02-15T01:18:56;2.90;1.00
37956;DHT22;23776;51.592;7.180;2023-02-15T01:21:24;2.90;1.00
37956;DHT22;23776;51.592;7.180;2023-02-15T01:23:49;2.80;1.00
37956;DHT22;23776;51.592;7.180;2023-02-15T01:26:16;2.80;1.00
37956;DHT22;23776;51.592;7.180;2023-02-15T01:28:41;2.70;1.00
37956;DHT22;23776;51.592;7.180;2023-02-15T01:31:13;2.80;1.00
37956;DHT22;23776;51.592;7.180;2023-02-15T01:33:40;2.80;1.00
37956;DHT22;23776;51.592;7.180;2023-02-15T01:36:06;2.80;1.00
37956;DHT22;23776;51.592;7.180;2023-02-15T01:38:32;2.80;1.00
37956;DHT22;23776;51.592;7.180;2023-02-15T01:40:57;2.80;1.00
37956;DHT22;23776;51.592;7.180;2023-02-15T01:43:45;2.80;1.00
37956;DHT22;23776;51.592;7.180;2023-02-15T01:46:13;2.80;1.00
37956;DHT22;23776;51.592;7.180;2023-02-15T01:48:52;2.70;1.00
37956;DHT22;23776;51.592;7.180;2023-02-15T01:51:21;2.70;1.00
37956;DHT22;23776;51.592;7.180;2023-02-15T01:54:05;2.70;1.00
37956;DHT22;23776;51.592;7.180;2023-02-15T01:56:37;2.70;1.00
37956;DHT22;23776;51.592;7.180;2023-02-15T01:59:08;2.70;1.00
37956;DHT22;23776;51.592;7.180;2023-02-15T02:01:34;2.70;1.00
37956;DHT22;23776;51.592;7.180;2023-02-15T02:06:32;2.70;1.00
37956;DHT22;23776;51.592;7.180;2023-02-15T02:08:58;2.60;1.00
37956;DHT22;23776;51.592;7.180;2023-02-15T02:11:25;2.70;1.00
37956;DHT22;23776;51.592;7.180;2023-02-15T02:13:51;2.70;1.00
37956;DHT22;23776;51.592;7.180;2023-02-15T02:16:28;2.50;1.00
37956;DHT22;23776;51.592;7.180;2023-02-15T02:19:19;2.50;1.00
37956;DHT22;23776;51.592;7.180;2023-02-15T02:33:52;2.40;1.00
37956;DHT22;23776;51.592;7.180;2023-02-15T02:36:28;3.60;1.00
37956;DHT22;23776;51.592;7.180;2023-02-15T02:42:06;2.20;1.00
37956;DHT22;23776;51.592;7.180;2023-02-15T02:44:43;2.30;1.00
37956;DHT22;23776;51.592;7.180;2023-02-15T02:47:26;2.30;1.00
37956;DHT22;23776;51.592;7.180;2023-02-15T02:50:22;2.30;1.00
37956;DHT22;23776;51.592;7.180;2023-02-15T02:52:50;2.30;1.00
37956;DHT22;23776;51.592;7.180;2023-02-15T02:57:55;2.20;1.00
37956;DHT22;23776;51.592;7.180;2023-02-15T03:00:25;3.00;1.00
37956;DHT22;23776;51.592;7.180;2023-02-15T03:02:56;2.20;1.00
37956;DHT22;23776;51.592;7.180;2023-02-15T03:05:26;2.20;1.00
37956;DHT22;23776;51.592;7.180;2023-02-15T03:07:53;1.20;1.00
37956;DHT22;23776;51.592;7.180;2023-02-15T03:10:21;2.10;1.00
37956;DHT22;23776;51.592;7.180;2023-02-15T03:12:48;2.10;1.00
37956;DHT22;23776;51.592;7.180;2023-02-15T03:15:29;2.00;1.00
37956;DHT22;23776;51.592;7.180;2023-02-15T03:18:20;2.00;1.00
37956;DHT22;23776;51.592;7.180;2023-02-15T03:20:48;2.00;1.00
37956;DHT22;23776;51.592;7.180;2023-02-15T03:23:20;2.10;1.00
37956;DHT22;23776;51.592;7.180;2023-02-15T03:25:51;2.00;1.00
37956;DHT22;23776;51.592;7.180;2023-02-15T03:28:40;2.00;1.00
37956;DHT22;23776;51.592;7.180;2023-02-15T03:31:08;2.00;1.00
37956;DHT22;23776;51.592;7.180;2023-02-15T03:33:37;2.00;1.00
37956;DHT22;23776;51.592;7.180;2023-02-15T03:36:23;2.00;1.00
37956;DHT22;23776;51.592;7.180;2023-02-15T03:41:42;2.00;1.00
37956;DHT22;23776;51.592;7.180;2023-02-15T03:44:30;1.90;1.00
37956;DHT22;23776;51.592;7.180;2023-02-15T03:49:29;1.90;1.00
37956;DHT22;23776;51.592;7.180;2023-02-15T03:51:57;1.80;1.00
37956;DHT22;23776;51.592;7.180;2023-02-15T03:54:25;1.80;1.00
37956;DHT22;23776;51.592;7.180;2023-02-15T03:57:21;1.80;1.00
37956;DHT22;23776;51.592;7.180;2023-02-15T04:00:09;1.80;1.00
37956;DHT22;23776;51.592;7.180;2023-02-15T04:05:27;1.80;1.00
37956;DHT22;23776;51.592;7.180;2023-02-15T04:07:52;1.80;1.00
37956;DHT22;23776;51.592;7.180;2023-02-15T04:10:18;1.80;1.00
37956;DHT22;23776;51.592;7.180;2023-02-15T04:13:02;1.80;1.00
37956;DHT22;23776;51.592;7.180;2023-02-15T04:15:28;1.80;1.00
37956;DHT22;23776;51.592;7.180;2023-02-15T04:18:13;1.80;1.00
37956;DHT22;23776;51.592;7.180;2023-02-15T04:20:38;1.80;1.00
37956;DHT22;23776;51.592;7.180;2023-02-15T04:23:22;1.90;1.00
37956;DHT22;23776;51.592;7.180;2023-02-15T04:26:07;1.80;1.00
37956;DHT22;23776;51.592;7.180;2023-02-15T04:28:32;1.80;1.00
37956;DHT22;23776;51.592;7.180;2023-02-15T04:30:58;1.80;1.00
37956;DHT22;23776;51.592;7.180;2023-02-15T04:33:23;1.70;1.00
37956;DHT22;23776;51.592;7.180;2023-02-15T04:35:49;1.80;1.00
37956;DHT22;23776;51.592;7.180;2023-02-15T04:38:15;2.90;1.00
37956;DHT22;23776;51.592;7.180;2023-02-15T04:40:40;1.80;1.00
37956;DHT22;23776;51.592;7.180;2023-02-15T04:43:06;1.80;1.00
37956;DHT22;23776;51.592;7.180;2023-02-15T04:45:31;1.80;1.00
37956;DHT22;23776;51.592;7.180;2023-02-15T04:47:57;1.80;1.00
37956;DHT22;23776;51.592;7.180;2023-02-15T04:50:22;1.70;1.00
37956;DHT22;23776;51.592;7.180;2023-02-15T04:52:48;1.70;1.00
37956;DHT22;23776;51.592;7.180;2023-02-15T04:55:14;1.70;1.00
37956;DHT22;23776;51.592;7.180;2023-02-15T04:57:39;1.70;1.00
37956;DHT22;23776;51.592;7.180;2023-02-15T05:00:05;1.70;1.00
37956;DHT22;23776;51.592;7.180;2023-02-15T05:02:31;1.70;1.00
37956;DHT22;23776;51.592;7.180;2023-02-15T05:04:57;1.70;1.00
37956;DHT22;23776;51.592;7.180;2023-02-15T05:07:22;1.80;1.00
37956;DHT22;23776;51.592;7.180;2023-02-15T05:09:48;1.70;1.00
37956;DHT22;23776;51.592;7.180;2023-02-15T05:12:14;1.70;1.00
37956;DHT22;23776;51.592;7.180;2023-02-15T05:14:39;1.70;1.00
37956;DHT22;23776;51.592;7.180;2023-02-15T05:17:05;1.60;1.00
37956;DHT22;23776;51.592;7.180;2023-02-15T05:19:30;1.60;1.00
37956;DHT22;23776;51.592;7.180;2023-02-15T05:21:56;1.60;1.00
37956;DHT22;23776;51.592;7.180;2023-02-15T05:24:22;1.70;1.00
37956;DHT22;23776;51.592;7.180;2023-02-15T05:27:09;1.60;1.00
37956;DHT22;23776;51.592;7.180;2023-02-15T05:29:54;1.60;1.00
37956;DHT22;23776;51.592;7.180;2023-02-15T05:32:19;1.60;1.00
37956;DHT22;23776;51.592;7.180;2023-02-15T05:34:45;1.60;1.00
37956;DHT22;23776;51.592;7.180;2023-02-15T05:37:10;1.60;1.00
37956;DHT22;23776;51.592;7.180;2023-02-15T05:39:36;1.60;1.00
37956;DHT22;23776;51.592;7.180;2023-02-15T05:42:02;1.60;1.00
37956;DHT22;23776;51.592;7.180;2023-02-15T05:44:28;1.60;1.00
37956;DHT22;23776;51.592;7.180;2023-02-15T05:46:53;1.60;1.00
37956;DHT22;23776;51.592;7.180;2023-02-15T05:49:19;1.70;6.20
37956;DHT22;23776;51.592;7.180;2023-02-15T05:51:45;1.70;3.60
37956;DHT22;23776;51.592;7.180;2023-02-15T05:54:10;3.30;6.40
37956;DHT22;23776;51.592;7.180;2023-02-15T05:56:36;1.70;1.10
37956;DHT22;23776;51.592;7.180;2023-02-15T05:59:01;1.70;1.00
37956;DHT22;23776;51.592;7.180;2023-02-15T06:01:27;1.70;1.00
37956;DHT22;23776;51.592;7.180;2023-02-15T06:03:53;1.70;1.00
37956;DHT22;23776;51.592;7.180;2023-02-15T06:06:19;1.70;1.00
37956;DHT22;23776;51.592;7.180;2023-02-15T06:08:45;1.60;1.00
37956;DHT22;23776;51.592;7.180;2023-02-15T06:11:11;1.60;1.00
37956;DHT22;23776;51.592;7.180;2023-02-15T06:13:37;1.60;1.00
37956;DHT22;23776;51.592;7.180;2023-02-15T06:16:02;1.60;1.00
37956;DHT22;23776;51.592;7.180;2023-02-15T06:18:28;1.60;1.00
37956;DHT22;23776;51.592;7.180;2023-02-15T06:20:54;1.60;1.00
37956;DHT22;23776;51.592;7.180;2023-02-15T06:23:19;1.50;1.00
37956;DHT22;23776;51.592;7.180;2023-02-15T06:25:46;1.50;1.00
37956;DHT22;23776;51.592;7.180;2023-02-15T06:28:12;1.50;1.00
37956;DHT22;23776;51.592;7.180;2023-02-15T06:30:37;1.50;1.00
37956;DHT22;23776;51.592;7.180;2023-02-15T06:33:04;1.50;1.00
37956;DHT22;23776;51.592;7.180;2023-02-15T06:35:29;1.50;1.00
37956;DHT22;23776;51.592;7.180;2023-02-15T06:37:55;1.60;4.30
37956;DHT22;23776;51.592;7.180;2023-02-15T06:40:20;1.50;5.40
37956;DHT22;23776;51.592;7.180;2023-02-15T06:42:46;1.50;7.40
37956;DHT22;23776;51.592;7.180;2023-02-15T06:45:12;1.50;1.40
37956;DHT22;23776;51.592;7.180;2023-02-15T06:47:38;1.50;1.90
37956;DHT22;23776;51.592;7.180;2023-02-15T06:50:05;1.50;1.00
37956;DHT22;23776;51.592;7.180;2023-02-15T06:52:31;1.50;1.00
37956;DHT22;23776;51.592;7.180;2023-02-15T06:54:57;1.50;1.00
37956;DHT22;23776;51.592;7.180;2023-02-15T06:57:22;1.50;1.00
37956;DHT22;23776;51.592;7.180;2023-02-15T06:59:48;1.60;1.00
37956;DHT22;23776;51.592;7.180;2023-02-15T07:02:14;1.60;1.00
37956;DHT22;23776;51.592;7.180;2023-02-15T07:04:40;1.50;1.00
37956;DHT22;23776;51.592;7.180;2023-02-15T07:07:09;1.50;1.00
37956;DHT22;23776;51.592;7.180;2023-02-15T07:09:35;1.50;1.00
37956;DHT22;23776;51.592;7.180;2023-02-15T07:12:01;1.50;1.00
37956;DHT22;23776;51.592;7.180;2023-02-15T07:14:46;1.60;1.00
37956;DHT22;23776;51.592;7.180;2023-02-15T07:17:11;1.50;1.00
37956;DHT22;23776;51.592;7.180;2023-02-15T07:19:37;1.60;1.00
37956;DHT22;23776;51.592;7.180;2023-02-15T07:22:03;1.60;1.00
37956;DHT22;23776;51.592;7.180;2023-02-15T07:24:30;1.60;1.00
37956;DHT22;23776;51.592;7.180;2023-02-15T07:26:55;1.70;1.00
37956;DHT22;23776;51.592;7.180;2023-02-15T07:29:23;1.70;1.00
37956;DHT22;23776;51.592;7.180;2023-02-15T07:31:48;1.80;1.00
37956;DHT22;23776;51.592;7.180;2023-02-15T07:34:14;1.70;1.00
37956;DHT22;23776;51.592;7.180;2023-02-15T07:36:40;1.80;1.00
37956;DHT22;23776;51.592;7.180;2023-02-15T07:39:05;1.80;1.00
37956;DHT22;23776;51.592;7.180;2023-02-15T07:41:31;1.90;1.00
37956;DHT22;23776;51.592;7.180;2023-02-15T07:43:56;1.90;1.00
37956;DHT22;23776;51.592;7.180;2023-02-15T07:46:22;2.00;3.70
37956;DHT22;23776;51.592;7.180;2023-02-15T07:48:47;2.00;4.00
37956;DHT22;23776;51.592;7.180;2023-02-15T07:51:14;2.10;7.20
37956;DHT22;23776;51.592;7.180;2023-02-15T07:53:40;2.20;6.40
37956;DHT22;23776;51.592;7.180;2023-02-15T07:56:13;2.30;6.00
37956;DHT22;23776;51.592;7.180;2023-02-15T07:58:39;2.40;7.10
37956;DHT22;23776;51.592;7.180;2023-02-15T08:03:48;2.60;10.00
37956;DHT22;23776;51.592;7.180;2023-02-15T08:06:14;2.70;8.40
37956;DHT22;23776;51.592;7.180;2023-02-15T08:08:41;2.70;13.80
37956;DHT22;23776;51.592;7.180;2023-02-15T08:13:56;3.00;19.60
37956;DHT22;23776;51.592;7.180;2023-02-15T08:16:37;3.10;18.10
37956;DHT22;23776;51.592;7.180;2023-02-15T08:19:17;3.10;18.50
37956;DHT22;23776;51.592;7.180;2023-02-15T08:21:49;3.20;20.00
37956;DHT22;23776;51.592;7.180;2023-02-15T08:24:16;3.30;19.80
37956;DHT22;23776;51.592;7.180;2023-02-15T08:26:42;3.50;22.00
37956;DHT22;23776;51.592;7.180;2023-02-15T08:29:10;3.60;19.80
37956;DHT22;23776;51.592;7.180;2023-02-15T08:31:35;3.70;19.40
37956;DHT22;23776;51.592;7.180;2023-02-15T08:34:03;3.80;17.50
37956;DHT22;23776;51.592;7.180;2023-02-15T08:36:30;3.90;15.20
37956;DHT22;23776;51.592;7.180;2023-02-15T08:39:02;3.90;15.50
37956;DHT22;23776;51.592;7.180;2023-02-15T08:41:29;4.00;16.30
37956;DHT22;23776;51.592;7.180;2023-02-15T08:43:57;4.20;13.70
37956;DHT22;23776;51.592;7.180;2023-02-15T08:46:25;4.40;11.30
37956;DHT22;23776;51.592;7.180;2023-02-15T08:48:51;4.40;11.70
37956;DHT22;23776;51.592;7.180;2023-02-15T08:51:25;4.50;11.20
37956;DHT22;23776;51.592;7.180;2023-02-15T08:53:52;4.60;10.10
37956;DHT22;23776;51.592;7.180;2023-02-15T08:56:20;4.70;10.80
37956;DHT22;23776;51.592;7.180;2023-02-15T08:58:46;4.80;11.00
37956;DHT22;23776;51.592;7.180;2023-02-15T09:01:20;5.80;9.10
37956;DHT22;23776;51.592;7.180;2023-02-15T09:03:49;5.10;6.40
37956;DHT22;23776;51.592;7.180;2023-02-15T09:06:17;5.20;3.70
37956;DHT22;23776;51.592;7.180;2023-02-15T09:08:43;5.30;1.00
37956;DHT22;23776;51.592;7.180;2023-02-15T09:14:17;5.50;1.00
37956;DHT22;23776;51.592;7.180;2023-02-15T11:09:27;11.60;1.00
37956;DHT22;23776;51.592;7.180;2023-02-15T11:11:56;11.70;1.00
37956;DHT22;23776;51.592;7.180;2023-02-15T11:17:17;12.30;1.00
37956;DHT22;23776;51.592;7.180;2023-02-15T11:22:33;13.90;1.00
37956;DHT22;23776;51.592;7.180;2023-02-15T11:25:01;14.50;99.90
37956;DHT22;23776;51.592;7.180;2023-02-15T11:27:33;14.70;99.90
37956;DHT22;23776;51.592;7.180;2023-02-15T11:30:15;14.80;99.90
37956;DHT22;23776;51.592;7.180;2023-02-15T11:32:51;15.20;99.90
37956;DHT22;23776;51.592;7.180;2023-02-15T11:35:27;15.30;99.90
37956;DHT22;23776;51.592;7.180;2023-02-15T11:38:18;16.80;99.90
37956;DHT22;23776;51.592;7.180;2023-02-15T11:40:54;16.70;99.90
37956;DHT22;23776;51.592;7.180;2023-02-15T11:43:51;16.60;99.90
37956;DHT22;23776;51.592;7.180;2023-02-15T11:46:19;16.40;99.90
37956;DHT22;23776;51.592;7.180;2023-02-15T11:48:46;16.60;99.90
37956;DHT22;23776;51.592;7.180;2023-02-15T11:51:14;17.60;99.90
37956;DHT22;23776;51.592;7.180;2023-02-15T11:53:42;18.50;99.90
37956;DHT22;23776;51.592;7.180;2023-02-15T11:56:21;19.00;99.90
37956;DHT22;23776;51.592;7.180;2023-02-15T11:58:58;19.60;99.90
37956;DHT22;23776;51.592;7.180;2023-02-15T12:01:45;20.10;99.90
37956;DHT22;23776;51.592;7.180;2023-02-15T12:04:36;20.40;99.90
37956;DHT22;23776;51.592;7.180;2023-02-15T12:07:24;20.90;99.90
37956;DHT22;23776;51.592;7.180;2023-02-15T12:09:57;21.00;99.90
37956;DHT22;23776;51.592;7.180;2023-02-15T12:12:28;20.60;99.90
37956;DHT22;23776;51.592;7.180;2023-02-15T12:15:00;20.40;99.90
37956;DHT22;23776;51.592;7.180;2023-02-15T12:17:40;20.40;99.90
37956;DHT22;23776;51.592;7.180;2023-02-15T12:22:39;20.70;99.90
37956;DHT22;23776;51.592;7.180;2023-02-15T12:25:27;20.70;99.90
37956;DHT22;23776;51.592;7.180;2023-02-15T12:27:54;19.20;99.90
37956;DHT22;23776;51.592;7.180;2023-02-15T12:30:35;19.10;99.90
37956;DHT22;23776;51.592;7.180;2023-02-15T12:33:22;19.40;99.90
37956;DHT22;23776;51.592;7.180;2023-02-15T12:35:57;19.00;99.90
37956;DHT22;23776;51.592;7.180;2023-02-15T12:38:26;19.70;99.90
37956;DHT22;23776;51.592;7.180;2023-02-15T12:40:59;20.20;99.90
37956;DHT22;23776;51.592;7.180;2023-02-15T12:43:36;20.30;99.90
37956;DHT22;23776;51.592;7.180;2023-02-15T12:48:39;18.80;99.90
37956;DHT22;23776;51.592;7.180;2023-02-15T12:51:09;18.60;99.90
37956;DHT22;23776;51.592;7.180;2023-02-15T12:53:39;18.40;99.90
37956;DHT22;23776;51.592;7.180;2023-02-15T12:56:07;18.00;99.90
37956;DHT22;23776;51.592;7.180;2023-02-15T12:58:40;17.60;99.90
37956;DHT22;23776;51.592;7.180;2023-02-15T13:03:52;17.60;99.90
37956;DHT22;23776;51.592;7.180;2023-02-15T13:06:20;17.30;99.90
37956;DHT22;23776;51.592;7.180;2023-02-15T13:08:49;16.20;99.90
37956;DHT22;23776;51.592;7.180;2023-02-15T13:11:23;16.20;99.90
37956;DHT22;23776;51.592;7.180;2023-02-15T13:14:02;16.40;99.90
37956;DHT22;23776;51.592;7.180;2023-02-15T13:16:37;16.70;99.90
37956;DHT22;23776;51.592;7.180;2023-02-15T13:19:44;16.90;99.90
37956;DHT22;23776;51.592;7.180;2023-02-15T13:22:10;16.80;99.90
37956;DHT22;23776;51.592;7.180;2023-02-15T13:27:19;17.10;99.90
37956;DHT22;23776;51.592;7.180;2023-02-15T13:32:51;17.30;99.90
37956;DHT22;23776;51.592;7.180;2023-02-15T13:35:18;17.40;99.90
37956;DHT22;23776;51.592;7.180;2023-02-15T13:40:37;17.50;99.90
37956;DHT22;23776;51.592;7.180;2023-02-15T13:43:51;17.80;99.90
37956;DHT22;23776;51.592;7.180;2023-02-15T13:45:59;17.40;99.90
37956;DHT22;23776;51.592;7.180;2023-02-15T13:48:47;18.10;99.90
37956;DHT22;23776;51.592;7.180;2023-02-15T13:57:02;18.70;99.90
37956;DHT22;23776;51.592;7.180;2023-02-15T14:07:52;18.60;99.90
37956;DHT22;23776;51.592;7.180;2023-02-15T14:10:43;18.40;99.90
37956;DHT22;23776;51.592;7.180;2023-02-15T14:13:48;18.20;99.90
37956;DHT22;23776;51.592;7.180;2023-02-15T14:16:45;17.80;99.90
37956;DHT22;23776;51.592;7.180;2023-02-15T14:19:29;17.20;99.90
37956;DHT22;23776;51.592;7.180;2023-02-15T14:24:44;17.10;99.90
37956;DHT22;23776;51.592;7.180;2023-02-15T14:30:02;17.90;99.90
37956;DHT22;23776;51.592;7.180;2023-02-15T14:35:00;18.40;99.90
37956;DHT22;23776;51.592;7.180;2023-02-15T14:43:19;18.00;99.90
37956;DHT22;23776;51.592;7.180;2023-02-15T14:49:19;17.50;99.90
37956;DHT22;23776;51.592;7.180;2023-02-15T15:07:58;16.30;99.90
37956;DHT22;23776;51.592;7.180;2023-02-15T15:12:58;16.20;99.90
37956;DHT22;23776;51.592;7.180;2023-02-15T15:15:47;16.20;99.90
37956;DHT22;23776;51.592;7.180;2023-02-15T15:18:49;16.00;99.90
37956;DHT22;23776;51.592;7.180;2023-02-15T15:22:11;15.90;99.90
37956;DHT22;23776;51.592;7.180;2023-02-15T15:35:36;15.40;99.90
37956;DHT22;23776;51.592;7.180;2023-02-15T15:43:34;15.00;99.90
37956;DHT22;23776;51.592;7.180;2023-02-15T15:46:24;15.00;99.90
37956;DHT22;23776;51.592;7.180;2023-02-15T15:49:01;14.90;99.90
37956;DHT22;23776;51.592;7.180;2023-02-15T15:51:30;14.90;99.90
37956;DHT22;23776;51.592;7.180;2023-02-15T15:53:56;14.70;99.90
37956;DHT22;23776;51.592;7.180;2023-02-15T15:56:27;14.70;99.90
37956;DHT22;23776;51.592;7.180;2023-02-15T15:58:58;14.60;99.90
37956;DHT22;23776;51.592;7.180;2023-02-15T16:01:43;14.60;99.90
37956;DHT22;23776;51.592;7.180;2023-02-15T16:04:21;14.50;99.90
37956;DHT22;23776;51.592;7.180;2023-02-15T16:06:47;14.40;99.90
37956;DHT22;23776;51.592;7.180;2023-02-15T16:09:19;14.30;99.90
37956;DHT22;23776;51.592;7.180;2023-02-15T16:11:47;14.10;99.90
37956;DHT22;23776;51.592;7.180;2023-02-15T16:14:26;14.00;99.90
37956;DHT22;23776;51.592;7.180;2023-02-15T16:16:57;13.90;99.90
37956;DHT22;23776;51.592;7.180;2023-02-15T16:19:28;15.80;99.90
37956;DHT22;23776;51.592;7.180;2023-02-15T16:21:55;13.70;99.90
37956;DHT22;23776;51.592;7.180;2023-02-15T16:24:42;13.60;99.90
37956;DHT22;23776;51.592;7.180;2023-02-15T16:29:49;13.40;99.90
37956;DHT22;23776;51.592;7.180;2023-02-15T16:35:02;13.20;99.90
37956;DHT22;23776;51.592;7.180;2023-02-15T16:37:33;13.10;99.90
37956;DHT22;23776;51.592;7.180;2023-02-15T16:39:59;13.00;99.90
37956;DHT22;23776;51.592;7.180;2023-02-15T16:42:25;12.90;99.90
37956;DHT22;23776;51.592;7.180;2023-02-15T16:45:00;12.70;99.90
37956;DHT22;23776;51.592;7.180;2023-02-15T16:47:32;12.50;99.90
37956;DHT22;23776;51.592;7.180;2023-02-15T16:50:01;12.40;99.90
37956;DHT22;23776;51.592;7.180;2023-02-15T16:52:28;12.30;99.90
37956;DHT22;23776;51.592;7.180;2023-02-15T16:55:02;12.10;99.90
37956;DHT22;23776;51.592;7.180;2023-02-15T16:57:35;12.00;99.90
37956;DHT22;23776;51.592;7.180;2023-02-15T17:00:30;11.90;99.90
37956;DHT22;23776;51.592;7.180;2023-02-15T17:02:59;11.80;99.90
37956;DHT22;23776;51.592;7.180;2023-02-15T17:08:15;11.40;99.90
37956;DHT22;23776;51.592;7.180;2023-02-15T17:10:44;11.40;99.90
37956;DHT22;23776;51.592;7.180;2023-02-15T17:13:13;11.30;99.90
37956;DHT22;23776;51.592;7.180;2023-02-15T17:18:25;11.20;1.00
37956;DHT22;23776;51.592;7.180;2023-02-15T17:20:54;11.10;1.00
37956;DHT22;23776;51.592;7.180;2023-02-15T17:23:41;11.00;1.00
37956;DHT22;23776;51.592;7.180;2023-02-15T17:26:18;10.90;1.00
37956;DHT22;23776;51.592;7.180;2023-02-15T17:28:50;10.70;1.00
37956;DHT22;23776;51.592;7.180;2023-02-15T17:31:18;10.60;1.00
37956;DHT22;23776;51.592;7.180;2023-02-15T17:33:45;10.50;1.00
37956;DHT22;23776;51.592;7.180;2023-02-15T17:36:19;10.40;1.00
37956;DHT22;23776;51.592;7.180;2023-02-15T17:42:09;10.10;99.90
37956;DHT22;23776;51.592;7.180;2023-02-15T17:44:35;10.10;1.00
37956;DHT22;23776;51.592;7.180;2023-02-15T17:47:00;10.20;1.00
37956;DHT22;23776;51.592;7.180;2023-02-15T17:49:26;10.10;1.00
37956;DHT22;23776;51.592;7.180;2023-02-15T17:52:02;10.10;1.00
37956;DHT22;23776;51.592;7.180;2023-02-15T17:54:28;9.90;1.00
37956;DHT22;23776;51.592;7.180;2023-02-15T17:57:14;9.90;1.00
37956;DHT22;23776;51.592;7.180;2023-02-15T17:59:41;9.80;1.00
37956;DHT22;23776;51.592;7.180;2023-02-15T18:02:27;9.80;1.00
37956;DHT22;23776;51.592;7.180;2023-02-15T18:05:15;9.80;1.00
37956;DHT22;23776;51.592;7.180;2023-02-15T18:07:59;9.90;1.00
37956;DHT22;23776;51.592;7.180;2023-02-15T18:10:44;9.90;1.00
37956;DHT22;23776;51.592;7.180;2023-02-15T18:13:28;10.00;1.00
37956;DHT22;23776;51.592;7.180;2023-02-15T18:15:55;10.00;1.00
37956;DHT22;23776;51.592;7.180;2023-02-15T18:18:21;10.00;1.00
37956;DHT22;23776;51.592;7.180;2023-02-15T18:20:48;10.00;1.00
37956;DHT22;23776;51.592;7.180;2023-02-15T18:23:14;10.00;1.00
37956;DHT22;23776;51.592;7.180;2023-02-15T18:25:40;10.10;1.00
37956;DHT22;23776;51.592;7.180;2023-02-15T18:28:08;10.00;1.00
37956;DHT22;23776;51.592;7.180;2023-02-15T18:30:35;8.40;1.00
37956;DHT22;23776;51.592;7.180;2023-02-15T18:33:01;10.00;1.00
37956;DHT22;23776;51.592;7.180;2023-02-15T18:35:31;9.90;1.00
37956;DHT22;23776;51.592;7.180;2023-02-15T18:37:58;8.20;1.00
37956;DHT22;23776;51.592;7.180;2023-02-15T18:40:26;10.00;1.00
37956;DHT22;23776;51.592;7.180;2023-02-15T18:42:53;10.00;1.00
37956;DHT22;23776;51.592;7.180;2023-02-15T18:45:26;9.90;5.80
37956;DHT22;23776;51.592;7.180;2023-02-15T18:47:52;9.90;83.90
37956;DHT22;23776;51.592;7.180;2023-02-15T18:50:20;11.10;91.80
37956;DHT22;23776;51.592;7.180;2023-02-15T18:52:47;9.80;44.00
37956;DHT22;23776;51.592;7.180;2023-02-15T18:57:45;9.80;29.30
37956;DHT22;23776;51.592;7.180;2023-02-15T19:00:19;9.80;27.50
37956;DHT22;23776;51.592;7.180;2023-02-15T19:02:45;9.50;50.00
37956;DHT22;23776;51.592;7.180;2023-02-15T19:05:11;9.70;86.60
37956;DHT22;23776;51.592;7.180;2023-02-15T19:07:37;9.60;99.90
37956;DHT22;23776;51.592;7.180;2023-02-15T19:10:05;9.60;99.90
37956;DHT22;23776;51.592;7.180;2023-02-15T19:12:31;9.70;99.90
37956;DHT22;23776;51.592;7.180;2023-02-15T19:14:57;9.70;99.90
37956;DHT22;23776;51.592;7.180;2023-02-15T19:17:23;9.60;96.40
37956;DHT22;23776;51.592;7.180;2023-02-15T19:19:51;9.50;97.10
37956;DHT22;23776;51.592;7.180;2023-02-15T19:22:28;9.50;95.80
37956;DHT22;23776;51.592;7.180;2023-02-15T19:24:57;9.50;99.20
37956;DHT22;23776;51.592;7.180;2023-02-15T19:27:31;9.50;99.90
37956;DHT22;23776;51.592;7.180;2023-02-15T19:30:06;9.50;99.90
37956;DHT22;23776;51.592;7.180;2023-02-15T19:32:35;9.50;99.90
37956;DHT22;23776;51.592;7.180;2023-02-15T19:35:01;9.60;98.10
37956;DHT22;23776;51.592;7.180;2023-02-15T19:37:33;9.50;99.90
37956;DHT22;23776;51.592;7.180;2023-02-15T19:40:00;9.50;90.40
37956;DHT22;23776;51.592;7.180;2023-02-15T19:42:27;9.50;93.00
37956;DHT22;23776;51.592;7.180;2023-02-15T19:44:53;9.50;99.70
37956;DHT22;23776;51.592;7.180;2023-02-15T19:47:19;9.40;99.90
37956;DHT22;23776;51.592;7.180;2023-02-15T19:49:45;9.40;99.90
37956;DHT22;23776;51.592;7.180;2023-02-15T19:52:18;9.30;99.90
37956;DHT22;23776;51.592;7.180;2023-02-15T19:54:46;9.20;99.90
37956;DHT22;23776;51.592;7.180;2023-02-15T19:57:12;9.10;99.90
37956;DHT22;23776;51.592;7.180;2023-02-15T19:59:39;9.10;99.90
37956;DHT22;23776;51.592;7.180;2023-02-15T20:02:05;9.10;1.00
37956;DHT22;23776;51.592;7.180;2023-02-15T20:04:32;9.20;1.00
37956;DHT22;23776;51.592;7.180;2023-02-15T20:06:59;9.00;1.00
37956;DHT22;23776;51.592;7.180;2023-02-15T20:09:30;9.10;98.50
37956;DHT22;23776;51.592;7.180;2023-02-15T20:11:56;9.00;68.00
37956;DHT22;23776;51.592;7.180;2023-02-15T20:14:22;8.90;1.00
37956;DHT22;23776;51.592;7.180;2023-02-15T20:16:48;8.80;92.20
37956;DHT22;23776;51.592;7.180;2023-02-15T20:19:14;8.80;99.90
37956;DHT22;23776;51.592;7.180;2023-02-15T20:21:42;8.80;99.90
37956;DHT22;23776;51.592;7.180;2023-02-15T20:24:14;8.70;99.90
37956;DHT22;23776;51.592;7.180;2023-02-15T20:26:41;8.60;99.90
37956;DHT22;23776;51.592;7.180;2023-02-15T20:29:12;8.50;99.90
37956;DHT22;23776;51.592;7.180;2023-02-15T20:31:37;8.50;99.90